createdAt,value
2022-11-21T15:48:48.279Z,99567.66
2022-11-21T15:51:16.001Z,99557.50
2022-11-21T15:53:42.679Z,99552.41
2022-11-21T15:56:21.378Z,99546.88
2022-11-21T15:58:49.546Z,99542.22
2022-11-21T16:01:19.160Z,99527.06
2022-11-21T16:03:48.440Z,99514.47
2022-11-21T16:06:16.007Z,99511.25
2022-11-21T16:08:42.945Z,99503.31
2022-11-21T16:11:40.520Z,99498.78
2022-11-21T16:14:08.765Z,99504.88
2022-11-21T16:16:43.326Z,99501.63
2022-11-21T16:19:11.635Z,99496.41
2022-11-21T16:21:38.488Z,99499.09
2022-11-21T16:24:05.142Z,99500.94
2022-11-21T16:26:33.331Z,99495.69
2022-11-21T16:29:01.468Z,99500.78
2022-11-21T16:31:30.208Z,99498.09
2022-11-21T16:33:58.016Z,99502.78
2022-11-21T16:36:26.551Z,99498.38
2022-11-21T16:38:53.408Z,99493.00
2022-11-21T16:41:22.223Z,99491.31
2022-11-21T16:43:51.329Z,99483.09
2022-11-21T16:46:19.451Z,99479.44
2022-11-21T16:48:46.170Z,99474.91
2022-11-21T16:51:15.557Z,99453.41
2022-11-21T16:53:43.291Z,99457.91
2022-11-21T16:56:11.172Z,99451.00
2022-11-21T16:58:39.673Z,99434.88
2022-11-21T17:01:17.656Z,99418.59
2022-11-21T17:03:47.354Z,99411.22
2022-11-21T17:06:17.340Z,99413.06
2022-11-21T17:08:44.638Z,99431.03
2022-11-21T17:11:18.417Z,99441.25
2022-11-21T17:13:47.151Z,99429.78
2022-11-21T17:16:16.032Z,99429.94
2022-11-21T17:18:43.287Z,99419.34
2022-11-21T17:21:12.808Z,99405.91
2022-11-21T17:23:41.467Z,99402.38
2022-11-21T17:26:13.797Z,99400.53
2022-11-21T17:28:45.188Z,99398.53
2022-11-21T17:31:14.868Z,99395.84
2022-11-21T17:33:42.548Z,99381.41
2022-11-21T17:36:13.753Z,99372.50
2022-11-21T17:38:40.734Z,99370.53
2022-11-21T17:41:10.967Z,99368.81
2022-11-21T17:43:37.929Z,99369.69
2022-11-21T17:46:09.940Z,99356.38
2022-11-21T17:48:37.875Z,99355.38
2022-11-21T17:51:09.440Z,99351.84
2022-11-21T17:53:38.646Z,99348.47
2022-11-21T17:56:06.753Z,99349.31
2022-11-21T17:58:34.502Z,99351.16
2022-11-21T18:01:02.803Z,99349.63
2022-11-21T18:03:30.100Z,99342.56
2022-11-21T18:06:08.408Z,99339.03
2022-11-21T18:08:39.960Z,99332.09
2022-11-21T18:11:08.663Z,99336.47
2022-11-21T18:13:36.055Z,99338.31
2022-11-21T18:16:05.305Z,99338.63
2022-11-21T18:18:33.540Z,99341.00
2022-11-21T18:21:07.561Z,99347.38
2022-11-21T18:23:34.892Z,99346.53
2022-11-21T18:26:06.042Z,99334.94
2022-11-21T18:28:33.237Z,99325.34
2022-11-21T18:31:16.557Z,99318.97
2022-11-21T18:33:44.029Z,99315.13
2022-11-21T18:36:12.076Z,99308.91
2022-11-21T18:38:49.283Z,99305.38
2022-11-21T18:41:20.229Z,99305.53
2022-11-21T18:43:52.396Z,99301.16
2022-11-21T18:46:19.570Z,99290.41
2022-11-21T18:49:02.400Z,99297.63
2022-11-21T18:51:32.013Z,99293.78
2022-11-21T18:54:07.918Z,99272.28
2022-11-21T18:56:36.044Z,99277.50
2022-11-21T18:59:07.281Z,99269.59
2022-11-21T19:01:35.968Z,99277.81
2022-11-21T19:04:02.899Z,99272.44
2022-11-21T19:06:29.639Z,99263.38
2022-11-21T19:09:00.004Z,99258.84
2022-11-21T19:11:29.215Z,99253.47
2022-11-21T19:13:57.139Z,99252.50
2022-11-21T19:16:25.545Z,99254.31
2022-11-21T19:21:41.544Z,99248.41
2022-11-21T19:24:12.998Z,99246.56
2022-11-21T19:26:39.791Z,99247.69
2022-11-21T19:29:06.396Z,99238.09
2022-11-21T19:31:32.880Z,99238.25
2022-11-21T19:33:59.404Z,99232.88
2022-11-21T19:36:26.068Z,99220.59
2022-11-21T19:38:52.674Z,99219.59
2022-11-21T19:41:22.164Z,99217.91
2022-11-21T19:43:54.149Z,99222.28
2022-11-21T19:46:23.447Z,99211.53
2022-11-21T19:48:51.875Z,99210.84
2022-11-21T19:51:19.592Z,99215.81
2022-11-21T19:53:46.740Z,99205.06
2022-11-21T19:56:14.995Z,99205.22
2022-11-21T19:58:42.694Z,99208.06
2022-11-21T20:01:13.453Z,99205.84
2022-11-21T20:03:42.130Z,99201.47
2022-11-21T20:06:16.013Z,99202.31
2022-11-21T20:08:43.142Z,99190.72
2022-11-21T20:11:12.640Z,99195.25
2022-11-21T20:13:40.559Z,99183.50
2022-11-21T20:16:08.684Z,99190.88
2022-11-21T20:18:36.042Z,99188.03
2022-11-21T20:21:10.152Z,99175.59
2022-11-21T20:23:37.340Z,99166.84
2022-11-21T20:26:04.400Z,99169.69
2022-11-21T20:28:33.880Z,99166.16
2022-11-21T20:31:12.363Z,99160.94
2022-11-21T20:33:44.502Z,99154.25
2022-11-21T20:36:18.556Z,99154.09
2022-11-21T20:38:52.193Z,99154.09
2022-11-21T20:41:19.718Z,99142.22
2022-11-21T20:44:35.900Z,99141.22
2022-11-21T20:46:34.840Z,99136.53
2022-11-21T20:49:01.491Z,99143.59
2022-11-21T20:53:13.027Z,99142.44
2022-11-21T20:54:14.909Z,99138.59
2022-11-21T20:56:44.364Z,99131.41
2022-11-21T20:59:11.448Z,99132.25
2022-11-21T21:01:38.214Z,99124.34
2022-11-21T21:04:04.828Z,99121.50
2022-11-21T21:06:31.716Z,99124.19
2022-11-21T21:08:58.245Z,99126.88
2022-11-21T21:11:50.512Z,99119.50
2022-11-21T21:14:11.579Z,99123.88
2022-11-21T21:16:38.076Z,99113.13
2022-11-21T21:19:04.567Z,99113.13
2022-11-21T21:21:31.028Z,99117.66
2022-11-21T21:24:02.927Z,99107.75
2022-11-21T21:26:35.839Z,99112.13
2022-11-21T21:29:08.117Z,99107.59
2022-11-21T21:31:34.723Z,99110.44
2022-11-21T21:34:01.919Z,99107.06
2022-11-21T21:36:28.601Z,99111.59
2022-11-21T21:38:57.163Z,99110.91
2022-11-21T21:41:25.522Z,99097.63
2022-11-21T21:43:53.453Z,99093.25
2022-11-21T21:46:23.762Z,99095.25
2022-11-21T21:48:53.164Z,99091.56
2022-11-21T21:51:22.305Z,99093.56
2022-11-21T21:53:50.293Z,99087.34
2022-11-21T21:56:18.735Z,99089.34
2022-11-21T21:58:47.373Z,99092.19
2022-11-21T22:01:22.204Z,99079.91
2022-11-21T22:03:52.301Z,99096.03
2022-11-21T22:06:18.912Z,99107.59
2022-11-21T22:08:47.330Z,99087.97
2022-11-21T22:11:16.147Z,99092.34
2022-11-21T22:13:44.501Z,99091.50
2022-11-21T22:16:14.043Z,99081.75
2022-11-21T22:18:40.921Z,99084.75
2022-11-21T22:21:17.869Z,99079.38
2022-11-21T22:24:17.329Z,99081.53
2022-11-21T22:26:32.886Z,99086.03
2022-11-21T22:28:59.444Z,99076.31
2022-11-21T22:31:25.972Z,99087.03
2022-11-21T22:33:52.629Z,99080.84
2022-11-21T22:36:19.390Z,99081.81
2022-11-21T22:38:46.251Z,99079.28
2022-11-21T22:41:18.704Z,99078.44
2022-11-21T22:43:50.522Z,99060.81
2022-11-21T22:46:17.508Z,99061.50
2022-11-21T22:48:44.033Z,99056.13
2022-11-21T22:51:13.733Z,99054.59
2022-11-21T22:53:40.852Z,99055.44
2022-11-21T22:56:10.937Z,99047.38
2022-11-21T22:58:39.996Z,99041.00
2022-11-21T23:01:14.286Z,99043.00
2022-11-21T23:03:41.821Z,99047.38
2022-11-21T23:06:11.403Z,99045.69
2022-11-21T23:08:38.775Z,99046.84
2022-11-21T23:11:07.814Z,99048.69
2022-11-21T23:13:36.007Z,99045.31
2022-11-21T23:16:03.652Z,99034.56
2022-11-21T23:18:30.184Z,99037.41
2022-11-21T23:20:56.748Z,99049.69
2022-11-21T23:23:23.743Z,99042.47
2022-11-21T23:25:50.302Z,99035.56
2022-11-21T23:28:17.264Z,99041.94
2022-11-21T23:30:45.375Z,99039.09
2022-11-21T23:33:12.453Z,99029.34
2022-11-21T23:35:39.347Z,99019.47
2022-11-21T23:38:05.885Z,99023.16
2022-11-21T23:40:32.446Z,99014.09
2022-11-21T23:42:59.166Z,99016.94
2022-11-21T23:45:25.926Z,99012.56
2022-11-21T23:47:52.497Z,99018.63
2022-11-21T23:50:21.072Z,99021.16
2022-11-21T23:52:48.412Z,99022.00
2022-11-21T23:55:16.145Z,99026.69
2022-11-21T23:57:46.875Z,99027.66
